Time;durP1;ratioP1;P1;durP2;ratioP2;P2;SDS_P1;SDS_P2;PMS_P1;PMS_P2;Temp;Humidity;BMP_temperature;BMP_pressure;BME280_temperature;BME280_humidity;BME280_pressure;Samples;Min_cycle;Max_cycle;Signal;HPM_P1;HPM_P2
2022/05/05 00:01:52;;;;;;;8.80;5.80;;;;;;;;;;5043196;28;20071;-62
2022/05/05 00:04:21;;;;;;;10.10;5.70;;;;;;;;;;5044970;28;20094;-62
2022/05/05 00:06:48;;;;;;;9.48;5.97;;;;;;;;;;5045922;28;20091;-63
2022/05/05 00:09:14;;;;;;;7.88;5.85;;;;;;;;;;5043184;28;20045;-61
2022/05/05 00:14:27;;;;;;;;;;;;;;;;;;5049081;28;20120;-63
2022/05/05 00:16:53;;;;;;;9.55;5.50;;;;;;;;;;5037319;28;19921;-62
2022/05/05 00:19:19;;;;;;;7.55;6.45;;;;;;;;;;5039532;28;20404;-61
2022/05/05 00:21:46;;;;;;;8.27;6.28;;;;;;;;;;5044326;28;20068;-62
2022/05/05 00:24:12;;;;;;;8.02;6.35;;;;;;;;;;5040501;28;20886;-61
2022/05/05 00:26:38;;;;;;;8.13;5.90;;;;;;;;;;5034708;28;20044;-62
2022/05/05 00:29:05;;;;;;;7.88;5.82;;;;;;;;;;5045413;28;20465;-62
2022/05/05 00:31:31;;;;;;;8.23;5.75;;;;;;;;;;5043103;28;20045;-62
2022/05/05 00:33:56;;;;;;;6.00;4.93;;;;;;;;;;5031793;28;20702;-64
2022/05/05 00:36:22;;;;;;;6.80;4.65;;;;;;;;;;5048068;28;20102;-64
2022/05/05 00:38:48;;;;;;;6.18;4.70;;;;;;;;;;5046064;28;20052;-63
2022/05/05 00:41:14;;;;;;;7.80;4.28;;;;;;;;;;5043772;28;20051;-61
2022/05/05 00:43:40;;;;;;;5.03;3.55;;;;;;;;;;5042432;28;20049;-62
2022/05/05 00:46:06;;;;;;;5.72;4.07;;;;;;;;;;5043930;28;20110;-62
2022/05/05 00:48:31;;;;;;;4.55;3.50;;;;;;;;;;5039602;28;20090;-61
2022/05/05 00:50:58;;;;;;;4.22;3.47;;;;;;;;;;5043124;28;20057;-63
2022/05/05 00:53:24;;;;;;;7.07;3.50;;;;;;;;;;5044933;28;20063;-62
2022/05/05 00:56:05;;;;;;;3.70;3.22;;;;;;;;;;5046000;28;20045;-64
2022/05/05 00:58:31;;;;;;;5.10;3.10;;;;;;;;;;5045544;28;20047;-62
2022/05/05 01:01:03;;;;;;;3.83;3.28;;;;;;;;;;5042454;28;20060;-63
2022/05/05 01:03:33;;;;;;;5.40;3.20;;;;;;;;;;5046375;28;20044;-62
2022/05/05 01:05:59;;;;;;;5.72;3.30;;;;;;;;;;5042580;28;20048;-61
2022/05/05 01:08:25;;;;;;;6.80;3.63;;;;;;;;;;5036314;28;20048;-62
2022/05/05 01:10:50;;;;;;;5.30;3.10;;;;;;;;;;5035236;28;20128;-62
2022/05/05 01:13:16;;;;;;;5.18;3.63;;;;;;;;;;5039678;28;20063;-60
2022/05/05 01:15:43;;;;;;;7.47;3.78;;;;;;;;;;5046360;28;20132;-62
2022/05/05 01:18:10;;;;;;;4.63;3.40;;;;;;;;;;5039877;28;20890;-61
2022/05/05 01:20:52;;;;;;;6.13;3.60;;;;;;;;;;5039212;28;20045;-61
2022/05/05 01:23:19;;;;;;;5.90;3.65;;;;;;;;;;5043835;28;20630;-62
2022/05/05 01:28:31;;;;;;;;;;;;;;;;;;5044339;28;20119;-61
2022/05/05 01:30:57;;;;;;;5.93;4.50;;;;;;;;;;5044233;28;19921;-61
2022/05/05 01:33:25;;;;;;;5.55;4.55;;;;;;;;;;5040187;28;20049;-61
2022/05/05 01:35:53;;;;;;;13.80;5.07;;;;;;;;;;5046519;28;20083;-62
2022/05/05 01:38:24;;;;;;;5.95;4.65;;;;;;;;;;5044675;28;20029;-62
2022/05/05 01:40:50;;;;;;;7.13;5.28;;;;;;;;;;5043226;28;20500;-63
2022/05/05 01:43:18;;;;;;;8.20;5.53;;;;;;;;;;5046126;28;20045;-62
2022/05/05 01:45:45;;;;;;;9.70;6.13;;;;;;;;;;5047596;28;20105;-61
2022/05/05 01:48:11;;;;;;;8.23;5.60;;;;;;;;;;5039866;28;20132;-62
2022/05/05 01:50:38;;;;;;;8.18;5.53;;;;;;;;;;5037551;28;20761;-62
2022/05/05 01:53:04;;;;;;;6.45;5.60;;;;;;;;;;5042640;28;20067;-63
2022/05/05 01:55:32;;;;;;;7.13;5.63;;;;;;;;;;5039804;28;20080;-61
2022/05/05 01:57:58;;;;;;;8.65;6.20;;;;;;;;;;5038166;28;20112;-62
2022/05/05 02:00:25;;;;;;;7.90;5.05;;;;;;;;;;5042656;28;20598;-61
2022/05/05 02:02:51;;;;;;;8.25;5.78;;;;;;;;;;5041830;28;20343;-62
2022/05/05 02:05:17;;;;;;;9.60;5.97;;;;;;;;;;5045870;28;20045;-63
2022/05/05 02:07:43;;;;;;;8.93;5.50;;;;;;;;;;5045506;28;20547;-61
2022/05/05 02:10:14;;;;;;;10.30;5.40;;;;;;;;;;5040146;28;20046;-67
2022/05/05 02:12:41;;;;;;;8.45;5.68;;;;;;;;;;5032624;28;20033;-60
2022/05/05 02:15:09;;;;;;;7.72;5.68;;;;;;;;;;5037512;28;20065;-61
2022/05/05 02:17:40;;;;;;;7.68;5.43;;;;;;;;;;5044247;28;20048;-62
2022/05/05 02:20:08;;;;;;;8.38;5.38;;;;;;;;;;5035219;28;20044;-61
2022/05/05 02:22:35;;;;;;;7.22;5.57;;;;;;;;;;5040766;28;20033;-62
2022/05/05 02:25:01;;;;;;;7.03;5.97;;;;;;;;;;5046603;28;20072;-62
2022/05/05 02:27:27;;;;;;;8.93;5.40;;;;;;;;;;5050510;28;20072;-60
2022/05/05 02:29:53;;;;;;;8.18;5.72;;;;;;;;;;5038558;28;20044;-62
2022/05/05 02:32:19;;;;;;;6.78;5.60;;;;;;;;;;5043695;28;20045;-63
2022/05/05 02:34:46;;;;;;;8.88;6.30;;;;;;;;;;5049167;28;20056;-61
2022/05/05 02:39:58;;;;;;;7.10;6.38;;;;;;;;;;5049424;28;20049;-67
2022/05/05 02:42:24;;;;;;;8.02;6.25;;;;;;;;;;5050197;28;20459;-62
2022/05/05 02:44:50;;;;;;;10.00;6.22;;;;;;;;;;5051051;28;20041;-61
2022/05/05 02:47:16;;;;;;;10.25;6.25;;;;;;;;;;5048548;28;20451;-63
2022/05/05 02:49:42;;;;;;;9.23;5.85;;;;;;;;;;5040895;28;20417;-60
2022/05/05 02:52:08;;;;;;;10.70;6.78;;;;;;;;;;5045832;28;20037;-61
2022/05/05 02:54:47;;;;;;;7.45;6.30;;;;;;;;;;5048140;28;20045;-61
2022/05/05 02:57:18;;;;;;;7.00;5.85;;;;;;;;;;5044906;28;20559;-61
2022/05/05 02:59:44;;;;;;;7.90;5.95;;;;;;;;;;5038216;28;20048;-63
2022/05/05 03:02:10;;;;;;;8.60;6.72;;;;;;;;;;5043741;28;20132;-66
2022/05/05 03:04:36;;;;;;;7.15;6.30;;;;;;;;;;5043438;28;20067;-64
2022/05/05 03:07:02;;;;;;;6.93;6.22;;;;;;;;;;5049453;28;20407;-61
2022/05/05 03:09:29;;;;;;;7.70;6.50;;;;;;;;;;5044589;28;20080;-61
2022/05/05 03:11:54;;;;;;;8.25;6.45;;;;;;;;;;5046552;28;20064;-64
2022/05/05 03:14:20;;;;;;;6.32;5.60;;;;;;;;;;5040071;28;20108;-63
2022/05/05 03:16:46;;;;;;;7.20;5.80;;;;;;;;;;5037825;28;20560;-61
2022/05/05 03:19:12;;;;;;;7.68;6.47;;;;;;;;;;5039181;28;20049;-62
2022/05/05 03:21:38;;;;;;;7.97;6.05;;;;;;;;;;5042709;28;20037;-62
2022/05/05 03:24:04;;;;;;;8.23;6.40;;;;;;;;;;5040010;28;20096;-61
2022/05/05 03:26:30;;;;;;;7.47;6.32;;;;;;;;;;5049676;28;20095;-62
2022/05/05 03:28:57;;;;;;;8.10;6.35;;;;;;;;;;5042754;28;20049;-62
2022/05/05 03:31:23;;;;;;;8.68;6.20;;;;;;;;;;5039755;28;20060;-61
2022/05/05 03:33:49;;;;;;;7.50;6.28;;;;;;;;;;5040234;28;20049;-61
2022/05/05 03:36:14;;;;;;;8.60;7.50;;;;;;;;;;5040358;28;21590;-62
2022/05/05 03:38:40;;;;;;;9.65;8.52;;;;;;;;;;5041106;28;20045;-61
2022/05/05 03:41:07;;;;;;;10.75;8.13;;;;;;;;;;5046568;28;20060;-62
2022/05/05 03:43:34;;;;;;;9.23;7.20;;;;;;;;;;5040037;28;20501;-61
2022/05/05 03:45:59;;;;;;;9.95;7.10;;;;;;;;;;5050058;28;20080;-62
2022/05/05 03:48:26;;;;;;;9.20;7.07;;;;;;;;;;5044740;28;20042;-61
2022/05/05 03:50:52;;;;;;;10.05;7.00;;;;;;;;;;5037826;28;20480;-63
2022/05/05 03:53:18;;;;;;;10.55;7.22;;;;;;;;;;5035189;28;20049;-61
2022/05/05 03:55:44;;;;;;;7.97;6.53;;;;;;;;;;5048874;28;20128;-62
2022/05/05 03:58:11;;;;;;;11.32;6.30;;;;;;;;;;5046367;28;20132;-61
2022/05/05 04:00:36;;;;;;;8.82;6.95;;;;;;;;;;5040581;28;20458;-66
2022/05/05 04:05:48;;;;;;;7.03;6.15;;;;;;;;;;5042993;28;20053;-62
2022/05/05 04:08:14;;;;;;;7.45;6.05;;;;;;;;;;5037774;28;20410;-61
2022/05/05 04:10:40;;;;;;;6.30;5.68;;;;;;;;;;5038685;28;20140;-62
2022/05/05 04:13:06;;;;;;;9.05;6.93;;;;;;;;;;5041856;28;20097;-62
2022/05/05 04:15:33;;;;;;;10.80;6.90;;;;;;;;;;5044898;28;20052;-63
2022/05/05 04:18:02;;;;;;;11.70;7.03;;;;;;;;;;5049459;28;20072;-62
2022/05/05 04:20:28;;;;;;;9.48;6.30;;;;;;;;;;5045832;28;20561;-66
2022/05/05 04:22:55;;;;;;;7.97;6.35;;;;;;;;;;5042685;28;20059;-63
2022/05/05 04:25:21;;;;;;;8.85;6.00;;;;;;;;;;5041807;28;20605;-61
2022/05/05 04:27:49;;;;;;;9.10;6.82;;;;;;;;;;5046582;28;20053;-61
2022/05/05 04:30:16;;;;;;;11.50;6.78;;;;;;;;;;5043535;28;20037;-62
2022/05/05 04:32:43;;;;;;;10.27;7.22;;;;;;;;;;5046913;28;20049;-62
2022/05/05 04:35:10;;;;;;;11.85;7.82;;;;;;;;;;5041822;28;20049;-63
2022/05/05 04:37:37;;;;;;;12.07;7.88;;;;;;;;;;5046542;28;20476;-63
2022/05/05 04:40:03;;;;;;;10.45;7.68;;;;;;;;;;5043260;28;20106;-63
2022/05/05 04:42:28;;;;;;;14.57;8.80;;;;;;;;;;5045056;28;20052;-62
2022/05/05 04:44:54;;;;;;;11.32;7.22;;;;;;;;;;5048981;28;20049;-64
2022/05/05 04:47:20;;;;;;;12.73;7.75;;;;;;;;;;5044966;28;20049;-61
2022/05/05 04:49:46;;;;;;;11.68;7.70;;;;;;;;;;5041574;28;20072;-63
2022/05/05 04:52:12;;;;;;;12.20;7.88;;;;;;;;;;5043467;28;20049;-61
2022/05/05 04:54:38;;;;;;;8.63;7.72;;;;;;;;;;5039343;28;20075;-61
2022/05/05 04:57:04;;;;;;;14.52;8.07;;;;;;;;;;5044435;28;20048;-61
2022/05/05 04:59:30;;;;;;;16.17;8.20;;;;;;;;;;5047492;28;20639;-62
2022/05/05 05:01:56;;;;;;;10.98;8.18;;;;;;;;;;5045202;28;20076;-62
2022/05/05 05:04:23;;;;;;;10.60;8.48;;;;;;;;;;5044282;28;20048;-61
2022/05/05 05:06:49;;;;;;;11.43;7.97;;;;;;;;;;5049546;28;20053;-62
2022/05/05 05:09:15;;;;;;;14.18;8.68;;;;;;;;;;5046802;28;20059;-62
2022/05/05 05:11:40;;;;;;;15.75;8.98;;;;;;;;;;5040023;28;20041;-62
2022/05/05 05:14:06;;;;;;;12.43;9.13;;;;;;;;;;5038614;28;20053;-63
2022/05/05 05:16:32;;;;;;;12.57;8.90;;;;;;;;;;5044669;28;20036;-63
2022/05/05 05:18:58;;;;;;;12.02;8.48;;;;;;;;;;5034123;28;20045;-66
2022/05/05 05:21:24;;;;;;;13.10;8.98;;;;;;;;;;5043364;28;20132;-62
2022/05/05 05:23:50;;;;;;;13.13;8.05;;;;;;;;;;5046221;28;20613;-62
2022/05/05 05:26:16;;;;;;;11.70;7.63;;;;;;;;;;5046990;28;20114;-61
2022/05/05 05:28:42;;;;;;;15.68;8.38;;;;;;;;;;5045693;28;20053;-63
2022/05/05 05:31:08;;;;;;;13.98;8.32;;;;;;;;;;5041379;28;20508;-63
2022/05/05 05:33:35;;;;;;;12.30;8.10;;;;;;;;;;5032173;28;20068;-64
2022/05/05 05:36:01;;;;;;;16.30;8.23;;;;;;;;;;5035201;28;20171;-62
2022/05/05 05:38:27;;;;;;;13.40;8.77;;;;;;;;;;5043687;28;20161;-63
2022/05/05 05:40:54;;;;;;;11.60;8.40;;;;;;;;;;5040190;28;20148;-63
2022/05/05 05:43:21;;;;;;;14.90;8.90;;;;;;;;;;5040057;28;20049;-61
2022/05/05 05:45:46;;;;;;;11.52;8.63;;;;;;;;;;5042834;28;20045;-63
2022/05/05 05:48:12;;;;;;;11.93;8.75;;;;;;;;;;5033530;28;20140;-63
2022/05/05 05:50:39;;;;;;;14.15;8.50;;;;;;;;;;5030174;28;20042;-62
2022/05/05 05:53:05;;;;;;;18.73;8.50;;;;;;;;;;5044079;28;20068;-64
2022/05/05 05:55:31;;;;;;;21.10;8.95;;;;;;;;;;5038089;28;20065;-63
2022/05/05 05:57:58;;;;;;;13.48;8.15;;;;;;;;;;5039076;28;20052;-64
2022/05/05 06:00:24;;;;;;;17.15;8.55;;;;;;;;;;5039018;28;20079;-64
2022/05/05 06:05:35;;;;;;;14.45;8.85;;;;;;;;;;5033905;28;20080;-63
2022/05/05 06:08:03;;;;;;;14.90;8.43;;;;;;;;;;5041837;28;20122;-67
2022/05/05 06:10:29;;;;;;;11.95;8.98;;;;;;;;;;5037604;28;20059;-64
2022/05/05 06:12:55;;;;;;;16.60;9.52;;;;;;;;;;5045462;28;20041;-62
2022/05/05 06:15:22;;;;;;;14.35;8.65;;;;;;;;;;5044178;28;22164;-66
2022/05/05 06:17:49;;;;;;;13.20;8.10;;;;;;;;;;5043178;28;20109;-66
2022/05/05 06:20:15;;;;;;;16.38;9.02;;;;;;;;;;5045410;28;20073;-62
2022/05/05 06:22:42;;;;;;;12.70;8.48;;;;;;;;;;5036323;28;20381;-65
2022/05/05 06:25:08;;;;;;;13.43;7.80;;;;;;;;;;5042687;28;20033;-63
2022/05/05 06:27:35;;;;;;;11.45;7.88;;;;;;;;;;5035664;28;20460;-61
2022/05/05 06:30:01;;;;;;;10.07;7.45;;;;;;;;;;5029044;28;20055;-64
2022/05/05 06:32:27;;;;;;;11.48;8.25;;;;;;;;;;5038404;28;20037;-62
2022/05/05 06:34:54;;;;;;;14.95;7.53;;;;;;;;;;5040130;28;20151;-65
2022/05/05 06:37:20;;;;;;;11.18;7.47;;;;;;;;;;5039223;28;20166;-64
2022/05/05 06:39:46;;;;;;;10.55;7.63;;;;;;;;;;5043677;28;20423;-63
2022/05/05 06:42:12;;;;;;;12.77;7.45;;;;;;;;;;5038441;28;20080;-61
2022/05/05 06:44:37;;;;;;;10.77;7.53;;;;;;;;;;5041855;28;20037;-65
2022/05/05 06:47:04;;;;;;;17.83;7.82;;;;;;;;;;5037663;28;20459;-66
2022/05/05 06:49:30;;;;;;;16.75;7.55;;;;;;;;;;5045973;28;20049;-63
2022/05/05 06:51:55;;;;;;;12.18;6.82;;;;;;;;;;5045665;28;20503;-64
2022/05/05 06:54:21;;;;;;;12.45;7.35;;;;;;;;;;5042588;28;20099;-64
2022/05/05 06:56:47;;;;;;;13.10;7.65;;;;;;;;;;5045206;28;20049;-63
2022/05/05 06:59:13;;;;;;;12.48;6.90;;;;;;;;;;5036635;28;20086;-62
2022/05/05 07:01:55;;;;;;;9.13;7.07;;;;;;;;;;5046279;28;20102;-63
2022/05/05 07:07:08;;;;;;;10.13;6.70;;;;;;;;;;5047579;28;20428;-64
2022/05/05 07:12:18;;;;;;;8.98;6.85;;;;;;;;;;5050448;28;20048;-64
2022/05/05 07:14:45;;;;;;;10.27;6.82;;;;;;;;;;5048414;28;20041;-61
2022/05/05 07:17:13;;;;;;;11.80;7.43;;;;;;;;;;5040735;28;20056;-61
2022/05/05 07:19:40;;;;;;;8.50;6.53;;;;;;;;;;5040452;28;20049;-64
2022/05/05 07:22:07;;;;;;;8.00;5.90;;;;;;;;;;5037209;28;20053;-62
2022/05/05 07:24:33;;;;;;;15.35;6.28;;;;;;;;;;5040795;28;20500;-63
2022/05/05 07:27:00;;;;;;;8.10;5.82;;;;;;;;;;5042214;28;20060;-64
2022/05/05 07:29:26;;;;;;;12.15;5.40;;;;;;;;;;5045419;28;20051;-63
2022/05/05 07:31:52;;;;;;;7.97;5.32;;;;;;;;;;5043834;28;20148;-64
2022/05/05 07:34:20;;;;;;;8.23;5.43;;;;;;;;;;5040688;28;20095;-63
2022/05/05 07:36:46;;;;;;;8.48;5.13;;;;;;;;;;5044297;28;20049;-64
2022/05/05 07:39:12;;;;;;;8.68;5.05;;;;;;;;;;5048226;28;21952;-65
2022/05/05 07:41:39;;;;;;;8.00;5.10;;;;;;;;;;5039041;28;20056;-64
2022/05/05 07:44:06;;;;;;;15.57;5.43;;;;;;;;;;5042039;28;20124;-64
2022/05/05 07:46:33;;;;;;;8.25;5.03;;;;;;;;;;5052723;28;20142;-64
2022/05/05 07:49:00;;;;;;;9.27;4.88;;;;;;;;;;5041764;28;20102;-65
2022/05/05 07:51:27;;;;;;;8.10;4.72;;;;;;;;;;5045428;28;20053;-63
2022/05/05 07:56:38;;;;;;;8.10;4.53;;;;;;;;;;5047198;28;20055;-61
2022/05/05 07:59:04;;;;;;;6.88;4.50;;;;;;;;;;5038058;28;20041;-61
2022/05/05 08:01:30;;;;;;;11.65;5.07;;;;;;;;;;5043131;28;20463;-64
2022/05/05 08:03:57;;;;;;;8.07;4.78;;;;;;;;;;5047327;28;20045;-63
2022/05/05 08:06:22;;;;;;;9.00;4.88;;;;;;;;;;5042235;28;20043;-63
2022/05/05 08:08:48;;;;;;;11.07;4.85;;;;;;;;;;5041675;28;20049;-63
2022/05/05 08:11:14;;;;;;;10.73;4.97;;;;;;;;;;5043713;28;20094;-63
2022/05/05 08:13:40;;;;;;;7.32;4.35;;;;;;;;;;5040308;28;20438;-59
2022/05/05 08:16:07;;;;;;;7.20;4.65;;;;;;;;;;5048174;28;20045;-62
2022/05/05 08:18:33;;;;;;;7.75;4.40;;;;;;;;;;5040851;28;21099;-63
2022/05/05 08:20:59;;;;;;;8.43;4.25;;;;;;;;;;5043931;28;20041;-63
2022/05/05 08:23:25;;;;;;;7.28;4.07;;;;;;;;;;5043281;28;20080;-63
2022/05/05 08:28:54;;;;;;;8.48;4.40;;;;;;;;;;5044302;28;20112;-65
2022/05/05 08:31:20;;;;;;;6.22;4.40;;;;;;;;;;5046703;28;20399;-63
2022/05/05 08:33:47;;;;;;;7.82;4.35;;;;;;;;;;5049494;28;20060;-65
2022/05/05 08:36:13;;;;;;;7.95;3.75;;;;;;;;;;5047195;28;20037;-62
2022/05/05 08:38:39;;;;;;;8.25;4.35;;;;;;;;;;5049760;28;20045;-63
2022/05/05 08:41:11;;;;;;;5.82;3.85;;;;;;;;;;5048761;28;20049;-61
2022/05/05 08:43:36;;;;;;;7.25;4.10;;;;;;;;;;5040418;28;20142;-62
2022/05/05 08:46:03;;;;;;;5.22;3.92;;;;;;;;;;5037977;28;20459;-62
2022/05/05 08:48:34;;;;;;;5.28;4.20;;;;;;;;;;5049131;28;20107;-62
2022/05/05 08:51:00;;;;;;;5.60;3.97;;;;;;;;;;5040497;28;20154;-62
2022/05/05 08:53:32;;;;;;;7.35;4.10;;;;;;;;;;5045464;28;20276;-63
2022/05/05 08:56:01;;;;;;;6.05;4.32;;;;;;;;;;5036499;28;20045;-64
2022/05/05 08:58:28;;;;;;;12.32;3.92;;;;;;;;;;5040345;28;20120;-61
2022/05/05 09:00:54;;;;;;;8.98;4.00;;;;;;;;;;5040238;28;20049;-62
2022/05/05 09:03:20;;;;;;;5.60;4.10;;;;;;;;;;5043472;28;20132;-63
2022/05/05 09:05:49;;;;;;;5.22;3.63;;;;;;;;;;5044287;28;20464;-63
2022/05/05 09:08:24;;;;;;;7.40;4.15;;;;;;;;;;5036144;28;20045;-64
2022/05/05 09:11:01;;;;;;;13.25;4.40;;;;;;;;;;5039988;28;20124;-63
2022/05/05 09:13:47;;;;;;;7.38;4.10;;;;;;;;;;5037274;28;20040;-61
2022/05/05 09:16:25;;;;;;;8.73;4.40;;;;;;;;;;5032370;28;20045;-60
2022/05/05 09:18:51;;;;;;;6.38;3.92;;;;;;;;;;5043047;28;20068;-69
2022/05/05 09:21:31;;;;;;;7.97;3.80;;;;;;;;;;5039281;28;20041;-64
2022/05/05 09:26:42;;;;;;;7.07;3.50;;;;;;;;;;5036401;28;20065;-66
2022/05/05 09:29:19;;;;;;;4.63;2.70;;;;;;;;;;5032141;28;20459;-64
2022/05/05 09:31:45;;;;;;;4.68;3.30;;;;;;;;;;5040346;28;20118;-63
2022/05/05 09:34:18;;;;;;;6.63;3.13;;;;;;;;;;5037955;28;20053;-63
2022/05/05 09:36:43;;;;;;;10.05;2.92;;;;;;;;;;5038508;28;20049;-63
2022/05/05 09:39:11;;;;;;;4.25;2.80;;;;;;;;;;5044018;28;20499;-64
2022/05/05 09:41:45;;;;;;;7.00;3.30;;;;;;;;;;5046090;28;20102;-62
2022/05/05 09:44:11;;;;;;;3.42;2.90;;;;;;;;;;5033166;28;20041;-63
2022/05/05 09:46:37;;;;;;;5.45;3.20;;;;;;;;;;5041975;28;20128;-62
2022/05/05 09:49:18;;;;;;;5.35;2.80;;;;;;;;;;5041269;28;20029;-64
2022/05/05 09:57:39;;;;;;;5.43;2.92;;;;;;;;;;5046909;28;20612;-64
2022/05/05 09:57:43;;;;;;;5.55;2.80;;;;;;;;;;5036102;28;20106;-67
2022/05/05 10:05:46;;;;;;;13.18;7.30;;;;;;;;;;5041532;28;20124;-63
2022/05/05 10:08:15;;;;;;;4.40;3.13;;;;;;;;;;5041427;28;20064;-63
2022/05/05 10:10:45;;;;;;;5.97;3.00;;;;;;;;;;5041715;28;20169;-61
2022/05/05 10:13:14;;;;;;;6.50;2.80;;;;;;;;;;5038943;28;20045;-61
2022/05/05 10:15:41;;;;;;;11.40;3.28;;;;;;;;;;5040922;28;20587;-61
2022/05/05 10:18:08;;;;;;;4.30;2.70;;;;;;;;;;5034931;28;20040;-63
2022/05/05 10:20:35;;;;;;;8.00;2.92;;;;;;;;;;5044470;28;20118;-62
2022/05/05 10:23:09;;;;;;;5.53;2.70;;;;;;;;;;5041881;28;20044;-63
2022/05/05 10:25:37;;;;;;;;;;;;;;;;;;5039644;28;20053;-63
2022/05/05 10:28:23;;;;;;;4.47;2.40;;;;;;;;;;5037739;28;20391;-65
2022/05/05 10:30:49;;;;;;;14.52;2.97;;;;;;;;;;5049380;28;20456;-64
2022/05/05 10:33:15;;;;;;;9.73;3.03;;;;;;;;;;5048778;28;20068;-61
2022/05/05 10:35:47;;;;;;;7.20;2.58;;;;;;;;;;5042436;28;20037;-61
2022/05/05 10:38:45;;;;;;;9.45;2.53;;;;;;;;;;5040998;28;20047;-61
2022/05/05 10:41:35;;;;;;;3.00;2.28;;;;;;;;;;5032803;28;20057;-61
2022/05/05 10:44:24;;;;;;;3.35;2.97;;;;;;;;;;5041707;28;20522;-64
2022/05/05 10:47:05;;;;;;;3.17;2.40;;;;;;;;;;5026545;28;20107;-66
2022/05/05 10:49:30;;;;;;;7.60;3.10;;;;;;;;;;5039690;28;20142;-63
2022/05/05 10:52:09;;;;;;;9.85;3.20;;;;;;;;;;5041128;28;20041;-66
2022/05/05 10:54:40;;;;;;;4.53;2.28;;;;;;;;;;5043117;28;20069;-64
2022/05/05 10:57:24;;;;;;;3.35;2.13;;;;;;;;;;5041809;28;20620;-62
2022/05/05 11:00:07;;;;;;;4.15;2.30;;;;;;;;;;5037660;28;20056;-64
2022/05/05 11:02:34;;;;;;;4.80;2.60;;;;;;;;;;5037931;28;20486;-61
2022/05/05 11:05:27;;;;;;;3.30;2.08;;;;;;;;;;5043470;28;20135;-64
2022/05/05 11:08:17;;;;;;;4.53;2.00;;;;;;;;;;5038566;28;20061;-63
2022/05/05 11:10:46;;;;;;;5.93;2.05;;;;;;;;;;5040069;28;20056;-62
2022/05/05 11:13:43;;;;;;;8.30;2.05;;;;;;;;;;5043933;28;20049;-62
2022/05/05 11:22:10;;;;;;;5.18;2.30;;;;;;;;;;5037370;28;20139;-60
2022/05/05 11:24:41;;;;;;;7.25;2.72;;;;;;;;;;5044913;28;20053;-61
2022/05/05 11:27:11;;;;;;;6.22;2.08;;;;;;;;;;5042418;28;20071;-64
2022/05/05 11:29:38;;;;;;;3.30;1.90;;;;;;;;;;5041762;28;20095;-63
2022/05/05 11:32:05;;;;;;;5.72;2.90;;;;;;;;;;5042139;28;20516;-64
2022/05/05 11:34:33;;;;;;;4.70;2.20;;;;;;;;;;5042057;28;20037;-64
2022/05/05 11:37:00;;;;;;;2.90;1.95;;;;;;;;;;5043522;28;20447;-64
2022/05/05 11:39:27;;;;;;;4.40;2.00;;;;;;;;;;5041545;28;20500;-62
2022/05/05 11:42:19;;;;;;;2.30;1.67;;;;;;;;;;5042424;28;20213;-64
2022/05/05 11:44:47;;;;;;;4.43;2.03;;;;;;;;;;5038678;28;20075;-64
2022/05/05 11:47:17;;;;;;;4.22;2.13;;;;;;;;;;5042831;28;20049;-61
2022/05/05 11:49:48;;;;;;;4.30;2.22;;;;;;;;;;5040714;28;20091;-62
2022/05/05 11:52:17;;;;;;;5.05;2.63;;;;;;;;;;5043713;28;20095;-62
2022/05/05 11:54:47;;;;;;;3.22;2.33;;;;;;;;;;5042428;28;20435;-63
2022/05/05 11:57:29;;;;;;;4.18;2.90;;;;;;;;;;5038890;28;20124;-62
2022/05/05 12:02:40;;;;;;;6.28;2.03;;;;;;;;;;5039739;28;20068;-61
2022/05/05 12:05:08;;;;;;;5.13;2.63;;;;;;;;;;5038212;28;20880;-62
2022/05/05 12:07:35;;;;;;;3.40;2.17;;;;;;;;;;5039242;28;20061;-61
2022/05/05 12:10:07;;;;;;;4.85;2.38;;;;;;;;;;5040934;28;20053;-63
2022/05/05 12:12:37;;;;;;;9.05;2.90;;;;;;;;;;5042821;28;20045;-62
2022/05/05 12:15:06;;;;;;;5.35;3.03;;;;;;;;;;5044213;28;20056;-64
2022/05/05 12:17:45;;;;;;;2.92;1.80;;;;;;;;;;5042546;28;20053;-61
2022/05/05 12:20:14;;;;;;;3.65;1.70;;;;;;;;;;5038990;28;20048;-63
2022/05/05 12:22:41;;;;;;;6.40;2.40;;;;;;;;;;5044614;28;20087;-63
2022/05/05 12:25:16;;;;;;;3.45;1.77;;;;;;;;;;5042434;28;20586;-65
2022/05/05 12:28:08;;;;;;;5.57;2.67;;;;;;;;;;5043765;28;20049;-63
2022/05/05 12:30:34;;;;;;;4.55;3.00;;;;;;;;;;5040498;28;20341;-62
2022/05/05 12:33:01;;;;;;;5.82;2.30;;;;;;;;;;5045074;28;20516;-64
2022/05/05 12:35:34;;;;;;;8.43;3.53;;;;;;;;;;5046366;28;20048;-64
2022/05/05 12:38:01;;;;;;;3.72;1.85;;;;;;;;;;5046442;28;20051;-68
2022/05/05 12:40:27;;;;;;;5.65;3.63;;;;;;;;;;5044083;28;20053;-63
2022/05/05 12:43:13;;;;;;;6.60;4.13;;;;;;;;;;5046625;28;20098;-65
2022/05/05 12:45:40;;;;;;;4.65;2.30;;;;;;;;;;5047375;28;20049;-64
2022/05/05 12:48:09;;;;;;;5.20;2.40;;;;;;;;;;5043848;28;20049;-63
2022/05/05 12:50:43;;;;;;;3.42;1.77;;;;;;;;;;5042623;28;20061;-64
2022/05/05 13:01:26;;;;;;;4.28;2.33;;;;;;;;;;5041681;28;20143;-68
2022/05/05 13:03:54;;;;;;;3.42;2.05;;;;;;;;;;5043379;28;20415;-65
2022/05/05 13:06:23;;;;;;;4.13;2.30;;;;;;;;;;5043011;28;20041;-64
2022/05/05 13:08:53;;;;;;;3.85;2.03;;;;;;;;;;5043475;28;20049;-63
2022/05/05 13:11:20;;;;;;;3.30;1.70;;;;;;;;;;5042550;28;20053;-62
2022/05/05 13:13:48;;;;;;;3.47;1.60;;;;;;;;;;5043012;28;20059;-64
2022/05/05 13:16:14;;;;;;;2.90;1.40;;;;;;;;;;5043721;28;20091;-62
2022/05/05 13:18:40;;;;;;;2.55;1.58;;;;;;;;;;5041511;28;20428;-62
2022/05/05 13:21:07;;;;;;;2.85;1.70;;;;;;;;;;5037778;28;20397;-64
2022/05/05 13:23:33;;;;;;;4.07;1.80;;;;;;;;;;5040905;28;20083;-63
2022/05/05 13:25:59;;;;;;;5.28;1.85;;;;;;;;;;5043749;28;20174;-61
2022/05/05 13:28:25;;;;;;;3.20;1.95;;;;;;;;;;5041642;28;20056;-63
2022/05/05 13:30:51;;;;;;;6.10;2.03;;;;;;;;;;5037586;28;20110;-62
2022/05/05 13:33:18;;;;;;;5.03;2.22;;;;;;;;;;5043482;28;20057;-63
2022/05/05 13:35:44;;;;;;;4.28;1.77;;;;;;;;;;5043307;28;20463;-62
2022/05/05 13:38:10;;;;;;;2.30;1.70;;;;;;;;;;5043673;28;20053;-63
2022/05/05 13:40:36;;;;;;;3.75;1.60;;;;;;;;;;5040654;28;20480;-61
2022/05/05 13:43:01;;;;;;;3.13;1.60;;;;;;;;;;5043318;28;20132;-63
2022/05/05 13:45:27;;;;;;;2.90;1.40;;;;;;;;;;5044255;28;20048;-65
2022/05/05 13:47:54;;;;;;;3.08;1.60;;;;;;;;;;5039884;28;20053;-63
2022/05/05 13:50:20;;;;;;;7.05;2.10;;;;;;;;;;5040112;28;20053;-64
2022/05/05 13:52:47;;;;;;;2.67;1.75;;;;;;;;;;5043794;28;20061;-63
2022/05/05 13:55:14;;;;;;;3.72;1.95;;;;;;;;;;5043702;28;20063;-64
2022/05/05 13:57:43;;;;;;;4.47;2.00;;;;;;;;;;5042627;28;20049;-64
2022/05/05 14:00:13;;;;;;;4.55;1.92;;;;;;;;;;5036567;28;20500;-64
2022/05/05 14:02:40;;;;;;;3.55;1.95;;;;;;;;;;5043456;28;20071;-69
2022/05/05 14:05:07;;;;;;;4.97;1.75;;;;;;;;;;5042698;28;20431;-63
2022/05/05 14:13:03;;;;;;;3.13;1.80;;;;;;;;;;5040483;28;20060;-62
2022/05/05 14:15:30;;;;;;;4.30;1.90;;;;;;;;;;5040824;28;20045;-62
2022/05/05 14:17:55;;;;;;;4.78;1.65;;;;;;;;;;5037903;28;20115;-62
2022/05/05 14:20:34;;;;;;;5.22;1.80;;;;;;;;;;5040206;28;20503;-64
2022/05/05 14:23:00;;;;;;;2.80;1.75;;;;;;;;;;5042928;28;20053;-66
2022/05/05 14:25:26;;;;;;;2.90;1.63;;;;;;;;;;5046927;28;20054;-64
2022/05/05 14:27:52;;;;;;;3.63;2.13;;;;;;;;;;5047813;28;20047;-63
2022/05/05 14:30:18;;;;;;;2.15;1.45;;;;;;;;;;5041730;28;20048;-62
2022/05/05 14:32:46;;;;;;;5.18;1.85;;;;;;;;;;5043892;28;20052;-63
2022/05/05 14:35:12;;;;;;;4.30;1.38;;;;;;;;;;5046229;28;20049;-64
2022/05/05 14:37:38;;;;;;;3.55;1.80;;;;;;;;;;5044637;28;20306;-64
2022/05/05 14:40:05;;;;;;;2.63;1.70;;;;;;;;;;5044383;28;20049;-63
2022/05/05 14:42:31;;;;;;;4.68;1.73;;;;;;;;;;5044024;28;20057;-64
2022/05/05 14:44:57;;;;;;;6.15;1.50;;;;;;;;;;5042130;28;20391;-63
2022/05/05 14:47:23;;;;;;;1.75;1.40;;;;;;;;;;5044579;28;20040;-62
2022/05/05 14:49:50;;;;;;;2.20;1.48;;;;;;;;;;5042491;28;20238;-65
2022/05/05 14:52:16;;;;;;;6.95;1.50;;;;;;;;;;5044429;28;20056;-62
2022/05/05 14:54:43;;;;;;;3.47;1.60;;;;;;;;;;5044461;28;20479;-64
2022/05/05 14:57:11;;;;;;;4.30;1.60;;;;;;;;;;5045501;28;20402;-63
2022/05/05 14:59:37;;;;;;;3.10;1.80;;;;;;;;;;5035345;28;20673;-64
2022/05/05 15:02:04;;;;;;;3.75;2.00;;;;;;;;;;5043270;28;20044;-63
2022/05/05 15:04:30;;;;;;;9.07;1.70;;;;;;;;;;5045453;28;20053;-63
2022/05/05 15:06:56;;;;;;;7.35;1.42;;;;;;;;;;5046129;28;20428;-63
2022/05/05 15:09:22;;;;;;;2.22;1.52;;;;;;;;;;5040988;28;20140;-63
2022/05/05 15:11:48;;;;;;;4.90;1.73;;;;;;;;;;5037074;28;20076;-66
2022/05/05 15:14:14;;;;;;;7.35;1.52;;;;;;;;;;5040524;28;20052;-63
2022/05/05 15:16:39;;;;;;;4.78;1.40;;;;;;;;;;5044301;28;20079;-65
2022/05/05 15:19:05;;;;;;;3.65;1.60;;;;;;;;;;5043245;28;20087;-63
2022/05/05 15:21:31;;;;;;;5.13;1.50;;;;;;;;;;5044726;28;20053;-64
2022/05/05 15:23:58;;;;;;;3.67;1.50;;;;;;;;;;5035242;28;20044;-64
2022/05/05 15:26:24;;;;;;;3.65;1.50;;;;;;;;;;5038006;28;20041;-64
2022/05/05 15:28:50;;;;;;;2.47;1.40;;;;;;;;;;5039610;28;20057;-64
2022/05/05 15:31:17;;;;;;;1.95;1.42;;;;;;;;;;5039292;28;20397;-62
2022/05/05 15:33:45;;;;;;;2.42;1.50;;;;;;;;;;5042248;28;20134;-65
2022/05/05 15:36:10;;;;;;;9.73;1.80;;;;;;;;;;5045003;28;20057;-63
2022/05/05 15:38:36;;;;;;;3.63;1.33;;;;;;;;;;5037869;28;20045;-63
2022/05/05 15:41:02;;;;;;;4.50;1.55;;;;;;;;;;5039325;28;20119;-64
2022/05/05 15:43:28;;;;;;;4.10;1.80;;;;;;;;;;5043371;28;20124;-63
2022/05/05 15:45:54;;;;;;;4.53;1.42;;;;;;;;;;5045916;28;20557;-61